Terminal Aerodrome Forecast
Issued by NWS Wilmington, OH

Current Version | Previous Version | Graphics & Text | Print | Product List | Glossary On
Versions: 1 2 3 4 5 6 7 8 9 10 11 12 13 14 15 16 17 18 19 20 21 22 23 24 25 26 27 28
000
FTUS41 KILN 181700
TAFCVG
TAF
KCVG 181728Z 1818/1924 31012G20KT P6SM VCSH OVC025
     FM182000 32012G20KT P6SM -SHRA BKN022
     FM190000 33010KT P6SM OVC020
     FM190800 34005KT P6SM SCT025
     FM191500 30004KT P6SM FEW040
     FM192200 25005KT P6SM SKC=

USA.gov is the U.S. government's official web portal to all federal, state and local government web resources and services.